← Previous May 28, 2024 4:14 AM

SAUS43 KABR 230557
MTR8D3
METAR K8D3 230556Z AUTO 17006KT 13/09 A2976 RMK AO1 SLP072 60001 
T01280089 10211 20122 402170100 58002 $